createdAt,value
2023-03-06T00:05:33.602Z,62.59
2023-03-06T00:15:35.754Z,62.54
2023-03-06T00:25:38.758Z,62.03
2023-03-06T00:35:41.432Z,62.99
2023-03-06T00:45:43.633Z,62.38
2023-03-06T00:55:45.905Z,63.69
2023-03-06T01:05:48.049Z,62.51
2023-03-06T01:15:50.190Z,61.96
2023-03-06T01:25:52.327Z,63.13
2023-03-06T01:35:55.628Z,62.44
2023-03-06T01:46:18.415Z,62.53
2023-03-06T01:56:20.778Z,61.55
2023-03-06T02:06:23.090Z,60.47
2023-03-06T02:16:28.972Z,60.96
2023-03-06T02:26:31.997Z,60.13
2023-03-06T02:36:38.505Z,61.48
2023-03-06T02:46:42.455Z,60.97
2023-03-06T02:56:45.847Z,60.41
2023-03-06T03:06:48.030Z,60.89
2023-03-06T03:16:50.334Z,62.54
2023-03-06T03:26:52.993Z,62.17
2023-03-06T03:36:57.756Z,61.38
2023-03-06T03:46:59.960Z,62.33
2023-03-06T03:57:02.182Z,60.18
2023-03-06T04:07:09.149Z,60.94
2023-03-06T04:17:12.235Z,62.37
2023-03-06T04:27:14.823Z,60.76
2023-03-06T04:37:22.373Z,61.57
2023-03-06T04:47:24.851Z,60.85
2023-03-06T04:57:26.945Z,62.55
2023-03-06T05:07:29.021Z,61.29
2023-03-06T05:17:31.087Z,62.05
2023-03-06T05:27:33.501Z,58.87
2023-03-06T05:37:35.569Z,58.66
2023-03-06T05:47:37.904Z,57.27
2023-03-06T05:57:40.039Z,58.38
2023-03-06T06:07:42.390Z,58.28
2023-03-06T06:17:44.701Z,59.70
2023-03-06T06:27:46.759Z,58.51
2023-03-06T06:37:49.053Z,60.28
2023-03-06T06:47:51.251Z,58.52
2023-03-06T06:57:53.392Z,60.39
2023-03-06T07:07:55.477Z,57.47
2023-03-06T07:17:57.627Z,60.03
2023-03-06T07:27:59.711Z,58.69
2023-03-06T07:38:01.874Z,59.34
2023-03-06T07:48:05.627Z,58.43
2023-03-06T07:58:08.506Z,59.45
2023-03-06T08:08:11.125Z,60.33
2023-03-06T08:18:13.161Z,61.86
2023-03-06T08:28:15.265Z,56.79
2023-03-06T08:38:17.430Z,59.27
2023-03-06T08:48:19.526Z,60.54
2023-03-06T08:58:21.604Z,59.32
2023-03-06T09:08:23.871Z,60.19
2023-03-06T09:18:25.988Z,62.88
2023-03-06T09:28:28.464Z,64.09
2023-03-06T09:38:30.537Z,62.92
2023-03-06T09:48:43.703Z,64.30
2023-03-06T09:58:51.388Z,61.75
2023-03-06T10:08:59.400Z,63.30
2023-03-06T10:19:10.667Z,60.28
2023-03-06T10:29:12.634Z,60.85
2023-03-06T10:39:20.205Z,58.99
2023-03-06T10:49:36.602Z,62.53
2023-03-06T10:59:51.967Z,57.25
2023-03-06T11:09:57.002Z,57.78
2023-03-06T11:20:14.504Z,55.03
2023-03-06T11:30:20.426Z,54.71
2023-03-06T11:40:36.707Z,54.54
2023-03-06T11:50:42.336Z,56.55
2023-03-06T12:00:57.943Z,53.17
2023-03-06T12:11:05.925Z,50.07
2023-03-06T12:21:35.367Z,50.33
2023-03-06T12:32:00.666Z,48.13
2023-03-06T12:42:22.899Z,47.46
2023-03-06T12:52:30.522Z,44.81
2023-03-06T13:02:39.679Z,45.58
2023-03-06T13:12:49.743Z,46.57
2023-03-06T13:22:51.829Z,44.54
2023-03-06T13:32:55.100Z,45.44
2023-03-06T13:43:03.854Z,45.93
2023-03-06T13:53:24.358Z,44.59
2023-03-06T14:04:04.977Z,46.72
2023-03-06T14:14:09.516Z,41.91
2023-03-06T14:24:16.620Z,43.33
2023-03-06T14:34:22.536Z,40.94
2023-03-06T14:44:26.415Z,38.41
2023-03-06T14:54:32.563Z,42.26
2023-03-06T15:04:40.933Z,39.22
2023-03-06T15:14:57.341Z,41.08
2023-03-06T15:25:19.771Z,40.01
2023-03-06T15:35:31.808Z,41.33
2023-03-06T15:45:34.874Z,41.61
2023-03-06T15:55:37.299Z,45.66
2023-03-06T16:05:39.480Z,46.28
2023-03-06T16:15:47.378Z,50.39
2023-03-06T16:25:49.636Z,50.98
2023-03-06T16:35:52.177Z,52.77
2023-03-06T16:45:54.437Z,56.50
2023-03-06T16:55:56.628Z,53.89
2023-03-06T17:05:58.705Z,53.57
2023-03-06T17:16:01.972Z,52.80
2023-03-06T17:26:12.794Z,52.41
2023-03-06T17:36:16.020Z,52.11
2023-03-06T17:46:18.422Z,54.36
2023-03-06T17:56:20.601Z,53.47
2023-03-06T18:06:23.278Z,55.52
2023-03-06T18:16:26.565Z,55.43
2023-03-06T18:26:29.787Z,54.57
2023-03-06T18:36:32.789Z,56.51
2023-03-06T18:46:37.568Z,57.42
2023-03-06T18:56:44.221Z,58.98
2023-03-06T19:06:46.409Z,57.99
2023-03-06T19:16:48.609Z,57.64
2023-03-06T19:26:50.942Z,55.83
2023-03-06T19:36:53.077Z,54.67
2023-03-06T19:46:55.248Z,55.36
2023-03-06T19:57:04.086Z,56.51
2023-03-06T20:07:06.644Z,57.39
2023-03-06T20:17:08.943Z,57.19
2023-03-06T20:27:11.320Z,57.05
2023-03-06T20:37:13.381Z,58.99
2023-03-06T20:47:15.530Z,57.27
2023-03-06T20:57:17.781Z,57.13
2023-03-06T21:07:19.915Z,57.98
2023-03-06T21:17:22.148Z,59.72
2023-03-06T21:27:24.379Z,61.31
2023-03-06T21:37:26.523Z,59.98
2023-03-06T21:47:28.566Z,62.91
2023-03-06T21:57:32.776Z,63.38
2023-03-06T22:07:36.315Z,64.13
2023-03-06T22:17:39.678Z,65.11
2023-03-06T22:27:41.735Z,65.19
2023-03-06T22:37:43.886Z,66.55
2023-03-06T22:47:45.948Z,66.59
2023-03-06T22:57:48.058Z,66.66
2023-03-06T23:07:50.149Z,65.54
2023-03-06T23:17:52.223Z,67.45
2023-03-06T23:28:13.095Z,69.40
2023-03-06T23:38:15.211Z,66.32
2023-03-06T23:48:17.295Z,67.17
2023-03-06T23:58:19.590Z,69.76
